Time;durP1;ratioP1;P1;durP2;ratioP2;P2;SDS_P1;SDS_P2;PMS_P1;PMS_P2;Temp;Humidity;BMP_temperature;BMP_pressure;BME280_temperature;BME280_humidity;BME280_pressure;Samples;Min_cycle;Max_cycle;Signal;HPM_P1;HPM_P2
2021/05/09 00:01:05;;;;;;;5.70;3.33;;;16.10;55.60;;;;;;10198061;27;20100;-57
2021/05/09 00:05:55;;;;;;;3.75;2.95;;;16.00;55.80;;;;;;10200209;27;20031;-61
2021/05/09 00:10:46;;;;;;;5.50;2.97;;;16.00;56.20;;;;;;10198179;27;20032;-59
2021/05/09 00:15:37;;;;;;;6.65;2.72;;;15.90;56.30;;;;;;10196854;27;20047;-59
2021/05/09 00:20:28;;;;;;;5.68;2.60;;;15.90;56.60;;;;;;10180398;27;20507;-57
2021/05/09 00:25:19;;;;;;;3.15;2.30;;;15.90;56.70;;;;;;10196341;27;20038;-58
2021/05/09 00:30:11;;;;;;;4.85;2.78;;;15.80;56.90;;;;;;10179036;27;20081;-60
2021/05/09 00:35:02;;;;;;;2.75;2.40;;;15.80;57.30;;;;;;10196525;27;20046;-57
2021/05/09 00:39:53;;;;;;;3.95;2.90;;;15.80;57.40;;;;;;10200468;27;20031;-59
2021/05/09 00:44:44;;;;;;;4.72;2.47;;;15.70;57.60;;;;;;10161908;27;20039;-59
2021/05/09 00:49:37;;;;;;;4.20;2.55;;;15.60;57.70;;;;;;10125403;28;20511;-59
2021/05/09 00:54:28;;;;;;;3.83;2.45;;;15.70;57.70;;;;;;10149248;28;20028;-59
2021/05/09 00:59:19;;;;;;;3.17;2.80;;;15.60;57.70;;;;;;10125275;28;20414;-59
2021/05/09 01:04:12;;;;;;;3.22;2.47;;;15.60;58.10;;;;;;10134898;28;20031;-59
2021/05/09 01:09:03;;;;;;;4.20;2.50;;;15.60;58.10;;;;;;10124873;28;20027;-59
2021/05/09 01:13:54;;;;;;;4.60;2.80;;;15.50;58.40;;;;;;10131232;28;20123;-59
2021/05/09 01:18:45;;;;;;;6.50;2.95;;;15.40;58.80;;;;;;10133570;28;20032;-60
2021/05/09 01:23:36;;;;;;;4.97;3.72;;;15.40;59.10;;;;;;10127470;28;20039;-59
2021/05/09 01:28:27;;;;;;;6.07;3.60;;;15.30;59.30;;;;;;10144854;28;20081;-60
2021/05/09 01:33:19;;;;;;;4.30;3.22;;;15.20;59.40;;;;;;10149861;28;20075;-59
2021/05/09 01:38:09;;;;;;;5.22;3.40;;;15.20;59.70;;;;;;10128714;28;20105;-60
2021/05/09 01:43:00;;;;;;;6.38;4.07;;;15.20;60.00;;;;;;10106194;28;20039;-59
2021/05/09 01:47:51;;;;;;;5.55;3.95;;;15.10;60.00;;;;;;10167810;27;20653;-60
2021/05/09 01:52:42;;;;;;;7.28;4.05;;;15.10;60.10;;;;;;10187555;27;20035;-61
2021/05/09 01:57:33;;;;;;;7.47;4.10;;;15.10;60.20;;;;;;10184348;27;20036;-61
2021/05/09 02:02:25;;;;;;;7.75;3.92;;;15.10;60.40;;;;;;10178507;27;20040;-60
2021/05/09 02:07:15;;;;;;;6.78;3.70;;;15.00;60.70;;;;;;10169794;27;20477;-58
2021/05/09 02:12:07;;;;;;;6.82;3.65;;;15.00;60.70;;;;;;10184742;27;20091;-60
2021/05/09 02:16:57;;;;;;;4.65;2.38;;;15.10;60.90;;;;;;10189284;27;20972;-59
2021/05/09 02:21:48;;;;;;;3.80;3.25;;;14.90;61.30;;;;;;10173694;27;20572;-59
2021/05/09 02:26:39;;;;;;;4.25;2.80;;;15.00;61.30;;;;;;10176524;27;20047;-61
2021/05/09 02:31:30;;;;;;;5.70;3.38;;;15.00;61.40;;;;;;10176759;28;20035;-61
2021/05/09 02:36:20;;;;;;;4.68;2.65;;;14.90;61.60;;;;;;10171090;28;20061;-59
2021/05/09 02:41:11;;;;;;;4.93;2.40;;;14.80;61.70;;;;;;10182126;28;20122;-59
2021/05/09 02:46:02;;;;;;;3.63;2.60;;;14.80;61.80;;;;;;10174449;28;20113;-60
2021/05/09 02:50:53;;;;;;;5.15;2.60;;;14.80;62.00;;;;;;10194139;28;20318;-59
2021/05/09 02:55:44;;;;;;;3.72;2.30;;;14.60;62.10;;;;;;10187381;28;20666;-59
2021/05/09 03:00:34;;;;;;;3.20;2.17;;;14.70;62.10;;;;;;10172431;28;20134;-60
2021/05/09 03:05:25;;;;;;;3.80;1.98;;;14.60;62.20;;;;;;10180896;28;20046;-59
2021/05/09 03:10:16;;;;;;;2.05;1.38;;;14.50;62.40;;;;;;10169074;28;20042;-60
2021/05/09 03:15:08;;;;;;;3.10;2.40;;;14.50;62.40;;;;;;10187550;28;20027;-60
2021/05/09 03:20:00;;;;;;;5.18;1.83;;;14.50;62.50;;;;;;10176915;28;20027;-60
2021/05/09 03:24:50;;;;;;;1.70;1.30;;;14.50;62.50;;;;;;10164341;28;20042;-58
2021/05/09 03:29:41;;;;;;;2.35;1.60;;;14.50;62.50;;;;;;10184332;28;20079;-58
2021/05/09 03:34:32;;;;;;;2.42;1.60;;;14.50;62.40;;;;;;10192307;28;20027;-59
2021/05/09 03:39:23;;;;;;;3.65;1.35;;;14.50;62.50;;;;;;10171637;27;20119;-59
2021/05/09 03:44:13;;;;;;;1.70;1.30;;;14.50;62.50;;;;;;10185453;27;20038;-57
2021/05/09 03:49:04;;;;;;;3.45;1.50;;;14.50;63.20;;;;;;10168837;27;20116;-58
2021/05/09 03:53:55;;;;;;;2.38;1.98;;;14.40;62.50;;;;;;10186585;27;20696;-58
2021/05/09 03:58:45;;;;;;;3.55;1.55;;;14.30;62.70;;;;;;10186097;27;20063;-58
2021/05/09 04:03:36;;;;;;;2.97;1.45;;;14.30;62.90;;;;;;10182506;27;20035;-59
2021/05/09 04:08:28;;;;;;;3.35;1.92;;;14.30;62.80;;;;;;10188242;27;20042;-59
2021/05/09 04:13:19;;;;;;;3.15;1.65;;;14.30;63.00;;;;;;10175678;27;20035;-59
2021/05/09 04:18:10;;;;;;;3.83;1.85;;;14.30;62.90;;;;;;10183602;27;20512;-60
2021/05/09 04:23:10;;;;;;;1.98;1.45;;;14.30;62.90;;;;;;10180591;27;20394;-60
2021/05/09 04:28:01;;;;;;;2.67;1.60;;;14.30;63.00;;;;;;10180404;27;20044;-59
2021/05/09 04:33:05;;;;;;;3.15;1.55;;;14.40;62.90;;;;;;10162367;27;20023;-60
2021/05/09 04:37:56;;;;;;;2.88;1.70;;;14.40;63.10;;;;;;10181294;27;20162;-61
2021/05/09 04:42:47;;;;;;;3.50;1.67;;;14.40;63.20;;;;;;10170831;27;20035;-59
2021/05/09 04:47:38;;;;;;;3.40;1.65;;;14.40;63.30;;;;;;10175522;27;20154;-58
2021/05/09 04:52:28;;;;;;;3.42;2.38;;;14.40;63.50;;;;;;10187113;27;20034;-58
2021/05/09 04:57:19;;;;;;;4.85;2.97;;;14.30;63.90;;;;;;10186442;27;20028;-60
2021/05/09 05:02:10;;;;;;;6.00;3.85;;;14.30;64.30;;;;;;10164918;27;20666;-60
2021/05/09 05:07:01;;;;;;;5.32;3.40;;;14.20;64.60;;;;;;10169225;27;20031;-60
2021/05/09 05:11:53;;;;;;;5.53;3.35;;;14.20;64.70;;;;;;10163916;27;20031;-60
2021/05/09 05:16:44;;;;;;;6.80;3.90;;;14.10;64.90;;;;;;10186244;27;20072;-59
2021/05/09 05:21:34;;;;;;;5.93;3.92;;;14.10;64.90;;;;;;10184918;27;20023;-59
2021/05/09 05:26:25;;;;;;;6.63;3.92;;;14.20;64.70;;;;;;10187307;27;20113;-59
2021/05/09 05:31:16;;;;;;;7.38;3.58;;;14.10;64.80;;;;;;10188745;27;21040;-60
2021/05/09 05:36:08;;;;;;;7.63;4.05;;;14.20;64.80;;;;;;10185343;27;20059;-59
2021/05/09 05:40:59;;;;;;;5.82;3.30;;;14.20;64.50;;;;;;10180132;27;20035;-59
2021/05/09 05:45:52;;;;;;;4.35;2.92;;;14.40;64.40;;;;;;10162111;27;20055;-59
2021/05/09 05:50:42;;;;;;;4.07;2.15;;;14.50;64.20;;;;;;10174566;27;20050;-60
2021/05/09 05:55:33;;;;;;;4.65;1.88;;;14.70;64.00;;;;;;10173082;27;20126;-59
2021/05/09 06:00:24;;;;;;;2.92;1.85;;;14.80;63.80;;;;;;10173762;27;20565;-60
2021/05/09 06:05:16;;;;;;;3.70;1.90;;;15.00;63.40;;;;;;10185986;27;20285;-62
2021/05/09 06:10:07;;;;;;;3.38;1.50;;;15.20;63.10;;;;;;10185127;27;20051;-59
2021/05/09 06:14:58;;;;;;;3.25;1.67;;;15.30;63.00;;;;;;10191628;27;20046;-58
2021/05/09 06:19:49;;;;;;;2.80;1.70;;;15.40;62.70;;;;;;10180149;27;20821;-59
2021/05/09 06:24:40;;;;;;;2.55;1.63;;;15.50;62.80;;;;;;10173878;27;20255;-62
2021/05/09 06:29:30;;;;;;;4.07;2.75;;;15.60;62.40;;;;;;10191224;27;20042;-60
2021/05/09 06:34:21;;;;;;;2.55;1.90;;;15.70;62.20;;;;;;10193368;27;20034;-59
2021/05/09 06:39:12;;;;;;;3.10;1.55;;;15.90;62.10;;;;;;10176324;27;20483;-58
2021/05/09 06:44:07;;;;;;;5.75;1.48;;;16.00;62.60;;;;;;10175669;28;20089;-59
2021/05/09 06:48:58;;;;;;;4.13;2.05;;;16.00;61.80;;;;;;10178001;28;20058;-59
2021/05/09 06:53:49;;;;;;;2.60;1.63;;;16.10;61.70;;;;;;10174751;28;20433;-61
2021/05/09 06:58:41;;;;;;;2.22;1.80;;;16.30;61.50;;;;;;10191700;28;20094;-60
2021/05/09 07:03:31;;;;;;;2.80;1.38;;;16.40;61.60;;;;;;10182196;28;20107;-61
2021/05/09 07:08:22;;;;;;;1.95;1.60;;;16.50;61.20;;;;;;10183159;28;20039;-60
2021/05/09 07:13:13;;;;;;;3.03;1.45;;;16.70;60.80;;;;;;10186617;27;20061;-62
2021/05/09 07:18:31;;;;;;;2.97;1.45;;;16.90;60.50;;;;;;10195859;27;20409;-61
2021/05/09 07:23:20;;;;;;;1.52;1.13;;;17.10;60.20;;;;;;10190305;27;20592;-62
2021/05/09 07:28:12;;;;;;;3.15;1.45;;;17.40;59.70;;;;;;10167487;27;20277;-60
2021/05/09 07:33:03;;;;;;;2.08;1.20;;;17.60;59.30;;;;;;10181698;27;20436;-60
2021/05/09 07:37:54;;;;;;;1.70;1.48;;;17.70;59.10;;;;;;10173988;27;20058;-60
2021/05/09 07:42:45;;;;;;;2.22;1.60;;;17.70;58.90;;;;;;10191428;27;20047;-60
2021/05/09 07:47:37;;;;;;;1.90;1.67;;;17.90;58.50;;;;;;10184034;27;20063;-61
2021/05/09 07:52:27;;;;;;;1.90;1.30;;;18.20;58.10;;;;;;10173665;27;20042;-60
2021/05/09 07:57:18;;;;;;;3.13;1.35;;;18.30;57.70;;;;;;10188572;27;20038;-59
2021/05/09 08:02:09;;;;;;;1.58;1.15;;;18.50;57.40;;;;;;10177268;27;20529;-61
2021/05/09 08:07:00;;;;;;;1.70;1.35;;;18.70;57.10;;;;;;10192535;27;20055;-60
2021/05/09 08:11:51;;;;;;;2.53;1.92;;;18.80;56.90;;;;;;10189009;27;20030;-60
2021/05/09 08:16:41;;;;;;;1.70;1.33;;;18.80;56.80;;;;;;10197996;27;20103;-59
2021/05/09 08:21:32;;;;;;;1.58;1.15;;;18.90;56.60;;;;;;10184120;27;20039;-63
2021/05/09 08:26:23;;;;;;;4.38;1.30;;;19.00;56.50;;;;;;10179617;27;20039;-60
2021/05/09 08:31:16;;;;;;;2.90;1.70;;;19.20;56.30;;;;;;10185891;27;20030;-60
2021/05/09 08:36:07;;;;;;;1.80;1.35;;;19.30;56.20;;;;;;10188796;27;20039;-60
2021/05/09 08:40:59;;;;;;;1.58;1.30;;;19.40;56.10;;;;;;10171853;27;20621;-61
2021/05/09 08:45:50;;;;;;;2.85;1.60;;;19.50;55.80;;;;;;10186655;27;20557;-60
2021/05/09 08:50:41;;;;;;;2.95;1.55;;;19.70;55.60;;;;;;10192558;27;20039;-62
2021/05/09 08:55:32;;;;;;;4.07;1.20;;;20.00;55.10;;;;;;10188946;27;20484;-59
2021/05/09 09:00:24;;;;;;;2.08;1.50;;;20.30;54.60;;;;;;10181395;27;20034;-59
2021/05/09 09:05:16;;;;;;;3.45;1.90;;;20.40;54.10;;;;;;10180219;27;20040;-59
2021/05/09 09:10:07;;;;;;;3.00;1.45;;;20.80;53.70;;;;;;10189876;27;20473;-60
2021/05/09 09:14:59;;;;;;;2.13;1.33;;;21.00;53.40;;;;;;10175030;27;20032;-59
2021/05/09 09:19:59;;;;;;;2.40;1.58;;;21.10;53.40;;;;;;10176821;27;20473;-60
2021/05/09 09:25:07;;;;;;;2.78;1.83;;;21.40;52.80;;;;;;10174925;27;20578;-60
2021/05/09 09:30:02;;;;;;;2.40;1.70;;;21.60;52.60;;;;;;10165640;27;20039;-61
2021/05/09 09:34:53;;;;;;;4.25;1.30;;;21.70;52.70;;;;;;10160806;27;20123;-61
2021/05/09 09:40:01;;;;;;;3.33;1.63;;;22.00;52.10;;;;;;10190651;27;20492;-62
2021/05/09 09:45:21;;;;;;;2.17;1.30;;;22.10;51.60;;;;;;10185825;27;20035;-61
2021/05/09 09:50:41;;;;;;;2.92;1.17;;;22.40;51.00;;;;;;10183636;27;20031;-60
2021/05/09 09:55:31;;;;;;;1.95;0.98;;;22.50;50.40;;;;;;10189482;27;20175;-60
2021/05/09 10:00:22;;;;;;;3.50;1.38;;;22.60;50.50;;;;;;10193601;27;20082;-59
2021/05/09 10:05:13;;;;;;;1.83;1.10;;;22.80;50.00;;;;;;10176863;27;20095;-61
2021/05/09 10:10:04;;;;;;;1.40;1.13;;;23.20;49.20;;;;;;10178108;27;20023;-59
2021/05/09 10:14:55;;;;;;;2.50;1.30;;;23.50;48.30;;;;;;10188025;27;20055;-60
2021/05/09 10:19:47;;;;;;;2.75;1.35;;;23.80;47.30;;;;;;10182631;27;20031;-59
2021/05/09 10:24:37;;;;;;;2.85;1.30;;;24.00;46.70;;;;;;10171646;27;20078;-59
2021/05/09 10:29:45;;;;;;;3.28;1.33;;;24.10;45.80;;;;;;10175121;27;20057;-58
2021/05/09 10:34:57;;;;;;;1.10;1.00;;;24.30;45.20;;;;;;10183606;27;20489;-62
2021/05/09 10:40:17;;;;;;;3.40;1.63;;;24.40;43.90;;;;;;10188347;27;20199;-60
2021/05/09 10:45:08;;;;;;;4.43;2.13;;;24.60;43.80;;;;;;10163369;28;20060;-61
2021/05/09 10:50:31;;;;;;;2.28;1.83;;;24.60;44.40;;;;;;10186369;27;20167;-59
2021/05/09 10:55:38;;;;;;;1.98;1.40;;;24.70;43.60;;;;;;10150399;27;20070;-60
2021/05/09 11:00:49;;;;;;;1.85;1.35;;;25.20;42.60;;;;;;10202607;27;20444;-59
2021/05/09 11:06:02;;;;;;;1.50;1.33;;;25.50;42.70;;;;;;10189993;27;20074;-59
2021/05/09 11:10:53;;;;;;;1.50;1.15;;;25.60;41.30;;;;;;10175970;27;20432;-60
2021/05/09 11:16:03;;;;;;;1.30;1.20;;;25.80;41.90;;;;;;10183397;27;20032;-59
2021/05/09 11:20:54;;;;;;;2.28;1.13;;;26.00;41.10;;;;;;10148473;27;20246;-59
2021/05/09 11:25:45;;;;;;;2.75;1.30;;;26.30;40.50;;;;;;10179107;27;20039;-60
2021/05/09 11:30:36;;;;;;;1.58;1.05;;;26.40;40.10;;;;;;10189558;27;20115;-60
2021/05/09 11:35:40;;;;;;;2.78;1.25;;;26.60;39.50;;;;;;10189738;27;20424;-58
2021/05/09 11:40:31;;;;;;;3.97;2.80;;;27.00;38.50;;;;;;10191970;27;20409;-61
2021/05/09 11:45:26;;;;;;;2.15;1.50;;;27.40;38.30;;;;;;10195041;27;20062;-60
2021/05/09 11:50:18;;;;;;;3.45;1.60;;;27.70;37.40;;;;;;10183599;27;20049;-59
2021/05/09 11:55:16;;;;;;;1.42;1.00;;;27.90;36.90;;;;;;10190297;27;20100;-58
2021/05/09 12:00:12;;;;;;;3.55;1.15;;;28.00;36.50;;;;;;10177214;27;20539;-60
2021/05/09 12:05:04;;;;;;;1.20;1.10;;;28.30;35.90;;;;;;10178535;27;20079;-60
2021/05/09 12:10:07;;;;;;;2.88;0.90;;;28.50;35.40;;;;;;10195293;27;20552;-61
2021/05/09 12:15:14;;;;;;;5.13;1.40;;;28.80;35.20;;;;;;10182169;27;20074;-61
2021/05/09 12:20:05;;;;;;;2.08;1.33;;;28.80;35.00;;;;;;10179624;27;20417;-62
2021/05/09 12:24:57;;;;;;;1.50;1.10;;;29.00;35.10;;;;;;10197040;27;20201;-61
2021/05/09 12:29:49;;;;;;;2.15;1.25;;;28.80;35.10;;;;;;10175051;27;20039;-60
2021/05/09 12:34:40;;;;;;;0.95;0.80;;;28.70;34.80;;;;;;10171820;27;20614;-60
2021/05/09 12:39:31;;;;;;;3.40;1.20;;;28.80;34.60;;;;;;10179294;27;20366;-60
2021/05/09 12:44:23;;;;;;;1.40;1.00;;;28.40;34.60;;;;;;10182442;27;20062;-60
2021/05/09 12:49:15;;;;;;;1.10;1.00;;;28.40;34.80;;;;;;10190047;27;20173;-60
2021/05/09 12:54:06;;;;;;;1.13;1.03;;;28.80;34.60;;;;;;10187380;27;20031;-60
2021/05/09 12:59:03;;;;;;;2.00;1.38;;;29.20;34.40;;;;;;10185129;27;20031;-61
2021/05/09 13:03:54;;;;;;;2.30;1.38;;;31.00;33.20;;;;;;10171982;27;20394;-59
2021/05/09 13:08:44;;;;;;;1.42;1.10;;;32.50;33.00;;;;;;10190580;27;20239;-60
2021/05/09 13:13:35;;;;;;;4.30;1.17;;;32.20;32.30;;;;;;10170548;27;20032;-59
2021/05/09 13:18:26;;;;;;;1.80;1.40;;;33.30;31.40;;;;;;10183724;27;20051;-59
2021/05/09 13:23:17;;;;;;;1.97;1.33;;;34.10;30.60;;;;;;10179516;27;20129;-60
2021/05/09 13:28:08;;;;;;;1.87;1.67;;;33.70;30.00;;;;;;10168405;27;20706;-60
2021/05/09 13:32:59;;;;;;;3.90;1.45;;;34.60;29.70;;;;;;10185343;27;20540;-61
2021/05/09 13:37:50;;;;;;;1.65;1.17;;;35.30;28.90;;;;;;10163555;27;20043;-61
2021/05/09 13:42:41;;;;;;;2.35;1.20;;;36.60;28.20;;;;;;10194182;27;20827;-60
2021/05/09 13:47:32;;;;;;;1.60;1.30;;;37.50;27.50;;;;;;10177656;27;20793;-59
2021/05/09 13:52:23;;;;;;;1.98;1.10;;;37.90;27.20;;;;;;10182068;27;20035;-61
2021/05/09 13:57:14;;;;;;;1.00;0.82;;;38.20;26.70;;;;;;10189616;27;20066;-61
2021/05/09 14:02:05;;;;;;;1.58;1.48;;;38.60;26.30;;;;;;10182716;27;20039;-60
2021/05/09 14:06:57;;;;;;;1.38;1.27;;;38.70;25.80;;;;;;10176962;27;20537;-61
2021/05/09 14:11:54;;;;;;;1.25;1.15;;;38.90;25.50;;;;;;10189690;27;20041;-60
2021/05/09 14:16:45;;;;;;;2.17;1.45;;;39.00;25.20;;;;;;10189368;27;20066;-60
2021/05/09 14:21:37;;;;;;;2.45;1.30;;;38.90;25.10;;;;;;10163416;27;20114;-60
2021/05/09 14:26:28;;;;;;;1.63;1.10;;;38.70;24.90;;;;;;10178143;27;20035;-61
2021/05/09 14:31:19;;;;;;;3.63;1.40;;;38.20;24.70;;;;;;10175302;27;20024;-61
2021/05/09 14:36:12;;;;;;;1.60;1.17;;;38.20;24.40;;;;;;10182611;27;20031;-60
2021/05/09 14:41:03;;;;;;;1.20;1.10;;;37.50;24.60;;;;;;10182390;27;20287;-60
2021/05/09 14:45:53;;;;;;;3.08;1.00;;;37.50;24.20;;;;;;10185997;27;20170;-60
2021/05/09 14:50:46;;;;;;;1.20;0.90;;;37.20;23.90;;;;;;10186288;28;20507;-61
2021/05/09 14:55:37;;;;;;;2.83;1.00;;;36.60;24.00;;;;;;10178825;28;20050;-60
2021/05/09 15:00:28;;;;;;;5.50;1.50;;;35.60;24.20;;;;;;10186386;28;20031;-61
2021/05/09 15:05:18;;;;;;;1.08;1.00;;;35.60;23.60;;;;;;10177291;28;20375;-59
2021/05/09 15:10:09;;;;;;;1.93;0.83;;;35.70;23.40;;;;;;10177022;28;20560;-59
2021/05/09 15:15:00;;;;;;;2.33;1.48;;;35.20;23.20;;;;;;10175926;28;20503;-61
2021/05/09 15:19:52;;;;;;;0.98;0.90;;;34.60;23.40;;;;;;10170784;28;20402;-60
2021/05/09 15:24:43;;;;;;;2.53;0.82;;;33.90;23.30;;;;;;10189116;28;20028;-61
2021/05/09 15:29:37;;;;;;;1.10;0.80;;;33.10;23.40;;;;;;10185943;28;20092;-60
2021/05/09 15:34:31;;;;;;;1.77;1.20;;;32.50;23.60;;;;;;10188698;27;20404;-62
2021/05/09 15:39:22;;;;;;;1.70;1.00;;;32.50;23.50;;;;;;10189358;27;20048;-60
2021/05/09 15:44:13;;;;;;;1.98;1.08;;;32.30;23.50;;;;;;10191522;27;20024;-60
2021/05/09 15:49:04;;;;;;;2.28;1.00;;;32.00;23.70;;;;;;10185846;27;20054;-60
2021/05/09 15:53:55;;;;;;;2.22;1.13;;;31.80;23.80;;;;;;10155695;27;20152;-60
2021/05/09 15:58:48;;;;;;;3.38;1.00;;;32.10;23.80;;;;;;10178625;27;20460;-60
2021/05/09 16:03:38;;;;;;;2.17;0.93;;;34.10;23.30;;;;;;10183230;27;20023;-59
2021/05/09 16:08:30;;;;;;;1.00;0.85;;;37.30;22.20;;;;;;10174678;27;20047;-63
2021/05/09 16:13:23;;;;;;;1.95;0.98;;;36.60;22.50;;;;;;10179409;27;20057;-60
2021/05/09 16:18:14;;;;;;;1.65;1.02;;;36.70;22.80;;;;;;10192818;27;20044;-61
2021/05/09 16:23:05;;;;;;;1.80;1.00;;;37.90;22.30;;;;;;10194176;27;20242;-60
2021/05/09 16:27:55;;;;;;;1.97;1.30;;;37.30;22.60;;;;;;10166644;27;20126;-59
2021/05/09 16:32:46;;;;;;;3.30;1.52;;;36.60;22.60;;;;;;10179786;27;20027;-62
2021/05/09 16:37:37;;;;;;;4.28;2.17;;;34.30;23.50;;;;;;10191984;27;20048;-64
2021/05/09 16:42:28;;;;;;;2.00;1.40;;;32.80;24.30;;;;;;10183371;27;20031;-63
2021/05/09 16:47:20;;;;;;;3.78;1.20;;;32.10;24.60;;;;;;10189214;27;20130;-64
2021/05/09 16:52:13;;;;;;;1.52;1.13;;;31.10;25.00;;;;;;10187247;27;20530;-62
2021/05/09 16:57:05;;;;;;;1.75;1.30;;;30.50;25.30;;;;;;10182520;27;20122;-62
2021/05/09 17:01:55;;;;;;;4.47;1.48;;;30.00;25.50;;;;;;10148729;27;20093;-60
2021/05/09 17:06:46;;;;;;;2.50;1.83;;;30.10;25.70;;;;;;10189849;27;20501;-63
2021/05/09 17:11:37;;;;;;;2.80;2.28;;;29.90;25.80;;;;;;10186435;27;21187;-65
2021/05/09 17:16:28;;;;;;;3.75;2.45;;;29.90;26.00;;;;;;10183364;27;20051;-65
2021/05/09 17:21:19;;;;;;;3.13;1.60;;;29.70;26.20;;;;;;10177490;27;20084;-63
2021/05/09 17:26:10;;;;;;;3.58;1.70;;;29.70;26.50;;;;;;10180224;27;20035;-60
2021/05/09 17:31:01;;;;;;;2.60;1.65;;;29.60;26.50;;;;;;10182740;27;20106;-62
2021/05/09 17:35:52;;;;;;;2.35;1.50;;;29.10;27.00;;;;;;10180220;27;20345;-61
2021/05/09 17:40:43;;;;;;;3.63;2.28;;;28.80;27.30;;;;;;10166835;27;20035;-63
2021/05/09 17:45:36;;;;;;;2.53;1.10;;;28.50;27.50;;;;;;10173610;27;20205;-63
2021/05/09 17:50:27;;;;;;;2.95;1.55;;;28.30;27.80;;;;;;10186691;27;20737;-63
2021/05/09 17:55:18;;;;;;;2.13;1.60;;;28.10;27.90;;;;;;10170021;27;20032;-62
2021/05/09 18:00:10;;;;;;;2.60;1.90;;;28.10;28.00;;;;;;10172781;27;20035;-63
2021/05/09 18:05:01;;;;;;;3.38;2.22;;;28.00;28.30;;;;;;10154349;27;20433;-61
2021/05/09 18:09:54;;;;;;;3.72;1.83;;;27.80;28.40;;;;;;10148621;27;20020;-61
2021/05/09 18:14:46;;;;;;;4.18;2.30;;;27.80;28.70;;;;;;10163993;27;20103;-60
2021/05/09 18:24:46;;;;;;;7.97;2.92;;;27.50;29.30;;;;;;10187624;27;20286;-60
2021/05/09 18:29:37;;;;;;;4.97;2.90;;;27.40;29.50;;;;;;10183762;27;20077;-58
2021/05/09 18:34:28;;;;;;;4.10;2.10;;;27.20;29.90;;;;;;10184240;27;20529;-60
2021/05/09 18:39:19;;;;;;;5.15;2.38;;;27.00;30.20;;;;;;10169190;27;20162;-62
2021/05/09 18:44:09;;;;;;;5.32;3.40;;;26.90;30.90;;;;;;10185913;27;21047;-62
2021/05/09 18:49:00;;;;;;;3.88;2.30;;;26.80;31.10;;;;;;10175406;28;20527;-64
2021/05/09 18:53:51;;;;;;;8.05;4.50;;;26.80;31.30;;;;;;10172490;28;20043;-59
2021/05/09 18:58:42;;;;;;;6.00;3.63;;;26.80;31.60;;;;;;10186156;28;20264;-59
2021/05/09 19:03:33;;;;;;;6.40;3.78;;;26.70;32.00;;;;;;10172024;28;20032;-64
2021/05/09 19:08:32;;;;;;;7.10;4.28;;;26.60;32.20;;;;;;10162989;27;20100;-63
2021/05/09 19:13:23;;;;;;;12.00;6.55;;;26.40;32.80;;;;;;10183360;27;21124;-63
2021/05/09 19:18:13;;;;;;;9.18;6.13;;;26.40;33.10;;;;;;10176795;27;20074;-62
2021/05/09 19:23:05;;;;;;;10.35;6.13;;;26.30;33.50;;;;;;10173803;27;20033;-62
2021/05/09 19:27:56;;;;;;;9.48;5.00;;;26.10;33.90;;;;;;10191911;27;20039;-61
2021/05/09 19:32:47;;;;;;;6.22;3.47;;;26.10;34.20;;;;;;10191464;27;20050;-62
2021/05/09 19:37:38;;;;;;;4.72;2.95;;;25.90;34.70;;;;;;10162849;27;20058;-62
2021/05/09 19:42:29;;;;;;;6.38;2.72;;;25.70;35.50;;;;;;10192183;27;20536;-63
2021/05/09 19:47:19;;;;;;;8.20;3.65;;;25.60;36.00;;;;;;10180807;27;20043;-62
2021/05/09 19:52:10;;;;;;;5.88;2.90;;;25.50;35.60;;;;;;10157024;27;20072;-64
2021/05/09 19:57:04;;;;;;;6.78;3.63;;;25.30;36.20;;;;;;10184082;27;20043;-61
2021/05/09 20:01:55;;;;;;;22.27;11.82;;;25.20;36.60;;;;;;10188688;27;20051;-62
2021/05/09 20:06:45;;;;;;;11.10;4.85;;;25.00;37.00;;;;;;10185998;27;20077;-61
2021/05/09 20:11:36;;;;;;;5.10;2.50;;;24.90;37.20;;;;;;10163105;27;20524;-60
2021/05/09 20:16:27;;;;;;;6.32;4.00;;;24.90;37.50;;;;;;10196038;27;20147;-62
2021/05/09 20:21:18;;;;;;;4.82;3.17;;;24.80;37.80;;;;;;10182318;27;20258;-62
2021/05/09 20:26:09;;;;;;;19.15;7.60;;;24.80;38.10;;;;;;10194165;27;20145;-61
2021/05/09 20:31:00;;;;;;;7.45;3.92;;;24.70;38.20;;;;;;10179093;27;21280;-62
2021/05/09 20:35:51;;;;;;;11.43;3.85;;;24.70;38.50;;;;;;10175851;27;20528;-60
2021/05/09 20:40:42;;;;;;;5.10;3.08;;;24.50;38.80;;;;;;10186657;27;20027;-60
2021/05/09 20:45:34;;;;;;;4.97;2.92;;;24.50;39.10;;;;;;10192334;27;20040;-62
2021/05/09 20:50:25;;;;;;;6.65;3.63;;;24.30;39.50;;;;;;10163387;27;20028;-63
2021/05/09 20:55:16;;;;;;;6.97;3.83;;;24.20;39.90;;;;;;10193861;27;20427;-63
2021/05/09 21:00:08;;;;;;;6.93;3.65;;;24.20;40.10;;;;;;10187203;27;20916;-60
2021/05/09 21:04:59;;;;;;;5.88;3.58;;;24.10;40.90;;;;;;10184711;27;20038;-60
2021/05/09 21:09:50;;;;;;;9.60;3.35;;;24.10;40.50;;;;;;10193265;27;20365;-60
2021/05/09 21:14:41;;;;;;;6.25;3.28;;;24.00;40.90;;;;;;10175547;27;20445;-61
2021/05/09 21:19:32;;;;;;;6.85;3.60;;;23.80;41.20;;;;;;10196523;27;21249;-59
2021/05/09 21:24:22;;;;;;;8.18;4.40;;;23.80;41.30;;;;;;10185118;27;20066;-60
2021/05/09 21:29:13;;;;;;;7.32;3.88;;;23.70;41.50;;;;;;10187027;27;20058;-59
2021/05/09 21:34:04;;;;;;;5.80;3.35;;;23.60;41.60;;;;;;10174860;27;20681;-60
2021/05/09 21:38:55;;;;;;;3.45;2.03;;;23.50;42.10;;;;;;10181306;27;20047;-60
2021/05/09 21:43:46;;;;;;;5.82;3.20;;;23.30;42.60;;;;;;10189270;27;20131;-59
2021/05/09 21:48:36;;;;;;;6.00;3.08;;;23.20;42.80;;;;;;10183422;27;20135;-60
2021/05/09 21:53:27;;;;;;;4.35;2.70;;;23.30;42.90;;;;;;10191085;27;20075;-62
2021/05/09 21:58:19;;;;;;;6.20;2.13;;;23.20;43.10;;;;;;10179501;27;20143;-60
2021/05/09 22:03:11;;;;;;;6.40;3.20;;;23.20;43.20;;;;;;10178906;27;20243;-60
2021/05/09 22:08:05;;;;;;;7.10;3.60;;;23.30;43.30;;;;;;10177865;27;20113;-61
2021/05/09 22:12:56;;;;;;;3.37;2.23;;;23.20;43.40;;;;;;10173716;27;20027;-59
2021/05/09 22:17:47;;;;;;;5.88;3.30;;;23.20;43.40;;;;;;10171758;27;20042;-60
2021/05/09 22:22:39;;;;;;;10.15;3.50;;;23.20;43.40;;;;;;10185223;27;20070;-61
2021/05/09 22:27:30;;;;;;;4.32;2.33;;;23.20;43.30;;;;;;10184995;27;20031;-60
2021/05/09 22:32:21;;;;;;;4.43;3.00;;;23.10;43.40;;;;;;10171995;27;20063;-61
2021/05/09 22:37:12;;;;;;;3.65;2.40;;;23.00;43.40;;;;;;10191379;27;20658;-62
2021/05/09 22:42:05;;;;;;;5.25;2.00;;;23.00;43.50;;;;;;10181549;27;20272;-59
2021/05/09 22:46:56;;;;;;;3.83;2.05;;;23.00;43.70;;;;;;10182236;27;20459;-60
2021/05/09 22:51:47;;;;;;;3.95;2.35;;;22.90;43.80;;;;;;10178042;28;20032;-65
2021/05/09 22:56:38;;;;;;;5.47;2.20;;;22.90;43.80;;;;;;10169071;28;20043;-61
2021/05/09 23:01:28;;;;;;;6.35;3.25;;;22.80;44.00;;;;;;10159556;28;20943;-60
2021/05/09 23:06:19;;;;;;;2.67;1.50;;;22.70;44.40;;;;;;10187814;28;20477;-60
2021/05/09 23:11:10;;;;;;;4.15;1.65;;;22.50;44.00;;;;;;10185371;28;20438;-59
2021/05/09 23:16:00;;;;;;;2.67;1.88;;;22.50;44.10;;;;;;10181308;28;20031;-59
2021/05/09 23:21:36;;;;;;;5.18;1.85;;;22.50;43.50;;;;;;10175618;28;20138;-60
2021/05/09 23:26:02;;;;;;;3.47;1.85;;;22.50;43.40;;;;;;10168325;28;20039;-61
2021/05/09 23:30:53;;;;;;;3.38;2.42;;;22.50;43.30;;;;;;10190869;28;20047;-61
2021/05/09 23:35:44;;;;;;;6.35;2.35;;;22.50;43.40;;;;;;10181937;28;20035;-60
2021/05/09 23:40:35;;;;;;;8.25;4.00;;;22.30;44.00;;;;;;10180443;28;20023;-60
2021/05/09 23:45:26;;;;;;;3.88;2.45;;;22.20;43.90;;;;;;10169322;28;20115;-63
2021/05/09 23:50:17;;;;;;;3.55;2.10;;;22.30;43.90;;;;;;10190347;28;20149;-60
2021/05/09 23:55:08;;;;;;;3.60;2.10;;;22.30;43.60;;;;;;10184282;27;20032;-62
2021/05/09 23:59:59;;;;;;;4.85;2.67;;;22.20;43.80;;;;;;10173265;27;20916;-60
